sensor_id;sensor_type;location;lat;lon;timestamp;P1;durP1;ratioP1;P2;durP2;ratioP2
62925;SDS011;55732;52.248;-0.844;2023-06-24T00:02:02;5.20;;;4.10;;
62925;SDS011;55732;52.248;-0.844;2023-06-24T00:04:27;9.00;;;4.30;;
62925;SDS011;55732;52.248;-0.844;2023-06-24T00:06:53;6.40;;;4.50;;
62925;SDS011;55732;52.248;-0.844;2023-06-24T00:09:23;7.00;;;4.50;;
62925;SDS011;55732;52.248;-0.844;2023-06-24T00:11:49;8.50;;;4.40;;
62925;SDS011;55732;52.248;-0.844;2023-06-24T00:14:14;6.70;;;4.40;;
62925;SDS011;55732;52.248;-0.844;2023-06-24T00:16:40;5.50;;;4.50;;
62925;SDS011;55732;52.248;-0.844;2023-06-24T00:19:06;6.00;;;4.50;;
62925;SDS011;55732;52.248;-0.844;2023-06-24T00:21:33;8.70;;;5.00;;
62925;SDS011;55732;52.248;-0.844;2023-06-24T00:23:59;5.70;;;4.20;;
62925;SDS011;55732;52.248;-0.844;2023-06-24T00:26:27;7.60;;;4.60;;
62925;SDS011;55732;52.248;-0.844;2023-06-24T00:28:52;5.90;;;4.40;;
62925;SDS011;55732;52.248;-0.844;2023-06-24T00:31:18;8.30;;;4.20;;
62925;SDS011;55732;52.248;-0.844;2023-06-24T00:33:44;7.60;;;4.80;;
62925;SDS011;55732;52.248;-0.844;2023-06-24T00:36:10;7.10;;;4.20;;
62925;SDS011;55732;52.248;-0.844;2023-06-24T00:38:39;7.20;;;4.90;;
62925;SDS011;55732;52.248;-0.844;2023-06-24T00:41:05;7.00;;;4.70;;
62925;SDS011;55732;52.248;-0.844;2023-06-24T00:43:32;6.50;;;5.30;;
62925;SDS011;55732;52.248;-0.844;2023-06-24T00:45:58;8.70;;;4.50;;
62925;SDS011;55732;52.248;-0.844;2023-06-24T00:48:24;5.30;;;4.40;;
62925;SDS011;55732;52.248;-0.844;2023-06-24T00:50:50;10.10;;;4.30;;
62925;SDS011;55732;52.248;-0.844;2023-06-24T00:53:16;7.50;;;4.60;;
62925;SDS011;55732;52.248;-0.844;2023-06-24T00:55:42;7.60;;;4.60;;
62925;SDS011;55732;52.248;-0.844;2023-06-24T00:58:10;4.70;;;4.20;;
62925;SDS011;55732;52.248;-0.844;2023-06-24T01:00:41;5.60;;;4.20;;
62925;SDS011;55732;52.248;-0.844;2023-06-24T01:03:07;6.50;;;4.70;;
62925;SDS011;55732;52.248;-0.844;2023-06-24T01:05:34;8.20;;;4.40;;
62925;SDS011;55732;52.248;-0.844;2023-06-24T01:08:00;6.70;;;4.70;;
62925;SDS011;55732;52.248;-0.844;2023-06-24T01:10:27;7.80;;;4.60;;
62925;SDS011;55732;52.248;-0.844;2023-06-24T01:12:52;9.60;;;4.80;;
62925;SDS011;55732;52.248;-0.844;2023-06-24T01:15:18;6.40;;;4.60;;
62925;SDS011;55732;52.248;-0.844;2023-06-24T01:18:02;7.60;;;4.90;;
62925;SDS011;55732;52.248;-0.844;2023-06-24T01:31:33;7.10;;;4.70;;
62925;SDS011;55732;52.248;-0.844;2023-06-24T01:34:17;9.60;;;5.50;;
62925;SDS011;55732;52.248;-0.844;2023-06-24T01:40:02;8.70;;;5.10;;
62925;SDS011;55732;52.248;-0.844;2023-06-24T01:42:39;8.50;;;5.30;;
62925;SDS011;55732;52.248;-0.844;2023-06-24T01:45:07;6.60;;;4.50;;
62925;SDS011;55732;52.248;-0.844;2023-06-24T01:47:37;12.00;;;4.90;;
62925;SDS011;55732;52.248;-0.844;2023-06-24T01:50:13;5.60;;;4.40;;
62925;SDS011;55732;52.248;-0.844;2023-06-24T01:52:43;9.80;;;5.20;;
62925;SDS011;55732;52.248;-0.844;2023-06-24T01:55:10;6.10;;;4.60;;
62925;SDS011;55732;52.248;-0.844;2023-06-24T01:57:37;6.80;;;5.10;;
62925;SDS011;55732;52.248;-0.844;2023-06-24T02:00:05;6.70;;;4.60;;
62925;SDS011;55732;52.248;-0.844;2023-06-24T02:02:33;7.30;;;5.30;;
62925;SDS011;55732;52.248;-0.844;2023-06-24T02:05:01;7.40;;;5.00;;
62925;SDS011;55732;52.248;-0.844;2023-06-24T02:09:55;8.60;;;4.50;;
62925;SDS011;55732;52.248;-0.844;2023-06-24T02:12:21;9.80;;;5.00;;
62925;SDS011;55732;52.248;-0.844;2023-06-24T02:14:49;7.00;;;5.00;;
62925;SDS011;55732;52.248;-0.844;2023-06-24T02:17:16;6.20;;;5.00;;
62925;SDS011;55732;52.248;-0.844;2023-06-24T02:19:42;10.10;;;5.20;;
62925;SDS011;55732;52.248;-0.844;2023-06-24T02:22:08;8.70;;;5.20;;
62925;SDS011;55732;52.248;-0.844;2023-06-24T02:24:35;6.70;;;5.10;;
62925;SDS011;55732;52.248;-0.844;2023-06-24T02:27:03;9.10;;;4.90;;
62925;SDS011;55732;52.248;-0.844;2023-06-24T02:29:30;7.10;;;5.10;;
62925;SDS011;55732;52.248;-0.844;2023-06-24T02:31:57;8.30;;;5.30;;
62925;SDS011;55732;52.248;-0.844;2023-06-24T02:34:22;10.70;;;5.40;;
62925;SDS011;55732;52.248;-0.844;2023-06-24T02:36:49;8.10;;;5.00;;
62925;SDS011;55732;52.248;-0.844;2023-06-24T02:39:15;7.00;;;4.50;;
62925;SDS011;55732;52.248;-0.844;2023-06-24T02:41:40;8.80;;;5.20;;
62925;SDS011;55732;52.248;-0.844;2023-06-24T02:44:06;8.30;;;5.30;;
62925;SDS011;55732;52.248;-0.844;2023-06-24T02:46:32;8.60;;;5.30;;
62925;SDS011;55732;52.248;-0.844;2023-06-24T02:49:00;8.20;;;5.70;;
62925;SDS011;55732;52.248;-0.844;2023-06-24T02:51:28;7.80;;;5.60;;
62925;SDS011;55732;52.248;-0.844;2023-06-24T02:53:55;8.30;;;5.40;;
62925;SDS011;55732;52.248;-0.844;2023-06-24T02:56:23;9.60;;;5.80;;
62925;SDS011;55732;52.248;-0.844;2023-06-24T02:58:51;9.00;;;5.10;;
62925;SDS011;55732;52.248;-0.844;2023-06-24T03:01:18;8.60;;;5.50;;
62925;SDS011;55732;52.248;-0.844;2023-06-24T03:03:49;7.30;;;5.10;;
62925;SDS011;55732;52.248;-0.844;2023-06-24T03:06:19;5.60;;;4.90;;
62925;SDS011;55732;52.248;-0.844;2023-06-24T03:08:46;7.40;;;5.70;;
62925;SDS011;55732;52.248;-0.844;2023-06-24T03:11:12;9.00;;;4.90;;
62925;SDS011;55732;52.248;-0.844;2023-06-24T03:13:39;7.30;;;5.40;;
62925;SDS011;55732;52.248;-0.844;2023-06-24T03:16:05;8.40;;;5.40;;
62925;SDS011;55732;52.248;-0.844;2023-06-24T03:18:30;7.20;;;5.10;;
62925;SDS011;55732;52.248;-0.844;2023-06-24T03:20:55;10.80;;;6.00;;
62925;SDS011;55732;52.248;-0.844;2023-06-24T03:23:21;7.30;;;5.60;;
62925;SDS011;55732;52.248;-0.844;2023-06-24T03:25:46;6.60;;;5.00;;
62925;SDS011;55732;52.248;-0.844;2023-06-24T03:28:12;7.90;;;5.30;;
62925;SDS011;55732;52.248;-0.844;2023-06-24T03:30:37;7.50;;;5.70;;
62925;SDS011;55732;52.248;-0.844;2023-06-24T03:33:02;6.90;;;5.30;;
62925;SDS011;55732;52.248;-0.844;2023-06-24T03:35:28;7.10;;;5.20;;
62925;SDS011;55732;52.248;-0.844;2023-06-24T03:37:55;6.60;;;5.20;;
62925;SDS011;55732;52.248;-0.844;2023-06-24T03:40:20;6.90;;;5.00;;
62925;SDS011;55732;52.248;-0.844;2023-06-24T03:42:45;6.60;;;5.10;;
62925;SDS011;55732;52.248;-0.844;2023-06-24T03:45:11;7.50;;;5.50;;
62925;SDS011;55732;52.248;-0.844;2023-06-24T03:47:36;11.30;;;5.80;;
62925;SDS011;55732;52.248;-0.844;2023-06-24T03:50:04;7.80;;;5.60;;
62925;SDS011;55732;52.248;-0.844;2023-06-24T03:52:29;12.70;;;5.20;;
62925;SDS011;55732;52.248;-0.844;2023-06-24T03:54:55;10.40;;;5.40;;
62925;SDS011;55732;52.248;-0.844;2023-06-24T03:57:20;9.40;;;5.50;;
62925;SDS011;55732;52.248;-0.844;2023-06-24T03:59:46;12.10;;;5.60;;
62925;SDS011;55732;52.248;-0.844;2023-06-24T04:02:12;7.50;;;5.90;;
62925;SDS011;55732;52.248;-0.844;2023-06-24T04:04:39;8.10;;;5.60;;
62925;SDS011;55732;52.248;-0.844;2023-06-24T04:07:04;6.90;;;5.50;;
62925;SDS011;55732;52.248;-0.844;2023-06-24T04:09:33;8.70;;;5.80;;
62925;SDS011;55732;52.248;-0.844;2023-06-24T04:12:00;8.60;;;6.00;;
62925;SDS011;55732;52.248;-0.844;2023-06-24T04:14:26;11.50;;;7.10;;
62925;SDS011;55732;52.248;-0.844;2023-06-24T04:16:51;10.00;;;6.50;;
62925;SDS011;55732;52.248;-0.844;2023-06-24T04:19:17;11.80;;;7.10;;
62925;SDS011;55732;52.248;-0.844;2023-06-24T04:21:42;13.70;;;7.40;;
62925;SDS011;55732;52.248;-0.844;2023-06-24T04:24:07;9.10;;;7.10;;
62925;SDS011;55732;52.248;-0.844;2023-06-24T04:26:33;9.70;;;7.50;;
62925;SDS011;55732;52.248;-0.844;2023-06-24T04:28:58;15.30;;;7.90;;
62925;SDS011;55732;52.248;-0.844;2023-06-24T04:31:23;10.80;;;7.70;;
62925;SDS011;55732;52.248;-0.844;2023-06-24T04:33:49;14.20;;;7.30;;
62925;SDS011;55732;52.248;-0.844;2023-06-24T04:36:14;10.40;;;7.40;;
62925;SDS011;55732;52.248;-0.844;2023-06-24T04:38:39;11.80;;;7.20;;
62925;SDS011;55732;52.248;-0.844;2023-06-24T04:41:05;12.60;;;7.40;;
62925;SDS011;55732;52.248;-0.844;2023-06-24T04:43:30;10.50;;;6.70;;
62925;SDS011;55732;52.248;-0.844;2023-06-24T04:45:55;11.60;;;7.50;;
62925;SDS011;55732;52.248;-0.844;2023-06-24T04:48:24;10.30;;;6.90;;
62925;SDS011;55732;52.248;-0.844;2023-06-24T04:50:50;10.10;;;6.50;;
62925;SDS011;55732;52.248;-0.844;2023-06-24T04:53:15;11.70;;;6.00;;
62925;SDS011;55732;52.248;-0.844;2023-06-24T04:55:41;9.50;;;6.00;;
62925;SDS011;55732;52.248;-0.844;2023-06-24T04:58:06;10.50;;;6.50;;
62925;SDS011;55732;52.248;-0.844;2023-06-24T05:00:31;7.90;;;5.80;;
62925;SDS011;55732;52.248;-0.844;2023-06-24T05:02:57;10.30;;;6.00;;
62925;SDS011;55732;52.248;-0.844;2023-06-24T05:05:22;8.60;;;6.00;;
62925;SDS011;55732;52.248;-0.844;2023-06-24T05:07:48;7.70;;;5.80;;
62925;SDS011;55732;52.248;-0.844;2023-06-24T05:10:14;12.30;;;5.90;;
62925;SDS011;55732;52.248;-0.844;2023-06-24T05:12:39;9.80;;;5.60;;
62925;SDS011;55732;52.248;-0.844;2023-06-24T05:15:05;9.00;;;5.20;;
62925;SDS011;55732;52.248;-0.844;2023-06-24T05:17:31;9.30;;;5.50;;
62925;SDS011;55732;52.248;-0.844;2023-06-24T05:19:56;8.80;;;5.80;;
62925;SDS011;55732;52.248;-0.844;2023-06-24T05:22:22;6.00;;;5.40;;
62925;SDS011;55732;52.248;-0.844;2023-06-24T05:24:47;8.70;;;5.60;;
62925;SDS011;55732;52.248;-0.844;2023-06-24T05:27:12;8.00;;;5.80;;
62925;SDS011;55732;52.248;-0.844;2023-06-24T05:29:38;11.60;;;5.00;;
62925;SDS011;55732;52.248;-0.844;2023-06-24T05:32:03;8.60;;;5.10;;
62925;SDS011;55732;52.248;-0.844;2023-06-24T05:34:29;6.50;;;4.30;;
62925;SDS011;55732;52.248;-0.844;2023-06-24T05:36:55;7.90;;;5.40;;
62925;SDS011;55732;52.248;-0.844;2023-06-24T05:39:21;9.60;;;5.40;;
62925;SDS011;55732;52.248;-0.844;2023-06-24T05:41:46;8.60;;;4.70;;
62925;SDS011;55732;52.248;-0.844;2023-06-24T05:44:13;6.50;;;4.60;;
62925;SDS011;55732;52.248;-0.844;2023-06-24T05:46:39;9.00;;;5.20;;
62925;SDS011;55732;52.248;-0.844;2023-06-24T05:49:04;8.70;;;4.50;;
62925;SDS011;55732;52.248;-0.844;2023-06-24T05:51:30;9.90;;;5.00;;
62925;SDS011;55732;52.248;-0.844;2023-06-24T05:53:55;9.00;;;5.10;;
62925;SDS011;55732;52.248;-0.844;2023-06-24T05:56:21;7.30;;;5.10;;
62925;SDS011;55732;52.248;-0.844;2023-06-24T05:58:48;8.00;;;4.70;;
62925;SDS011;55732;52.248;-0.844;2023-06-24T06:01:14;9.10;;;4.90;;
62925;SDS011;55732;52.248;-0.844;2023-06-24T06:03:39;5.70;;;4.50;;
62925;SDS011;55732;52.248;-0.844;2023-06-24T06:06:05;8.00;;;4.40;;
62925;SDS011;55732;52.248;-0.844;2023-06-24T06:08:30;9.50;;;4.50;;
62925;SDS011;55732;52.248;-0.844;2023-06-24T06:10:56;11.30;;;4.80;;
62925;SDS011;55732;52.248;-0.844;2023-06-24T06:13:21;5.90;;;4.40;;
62925;SDS011;55732;52.248;-0.844;2023-06-24T06:15:47;7.70;;;4.30;;
62925;SDS011;55732;52.248;-0.844;2023-06-24T06:18:12;9.70;;;4.70;;
62925;SDS011;55732;52.248;-0.844;2023-06-24T06:20:38;8.70;;;4.70;;
62925;SDS011;55732;52.248;-0.844;2023-06-24T06:23:03;13.90;;;4.90;;
62925;SDS011;55732;52.248;-0.844;2023-06-24T06:25:28;9.40;;;4.50;;
62925;SDS011;55732;52.248;-0.844;2023-06-24T06:27:54;6.60;;;4.80;;
62925;SDS011;55732;52.248;-0.844;2023-06-24T06:30:19;7.80;;;4.50;;
62925;SDS011;55732;52.248;-0.844;2023-06-24T06:32:45;8.20;;;5.10;;
62925;SDS011;55732;52.248;-0.844;2023-06-24T06:35:10;6.60;;;4.40;;
62925;SDS011;55732;52.248;-0.844;2023-06-24T06:37:35;6.40;;;4.20;;
62925;SDS011;55732;52.248;-0.844;2023-06-24T06:40:01;7.00;;;4.30;;
62925;SDS011;55732;52.248;-0.844;2023-06-24T06:42:28;4.70;;;4.10;;
62925;SDS011;55732;52.248;-0.844;2023-06-24T06:44:54;7.90;;;4.10;;
62925;SDS011;55732;52.248;-0.844;2023-06-24T06:47:19;6.20;;;4.00;;
62925;SDS011;55732;52.248;-0.844;2023-06-24T06:49:44;6.40;;;3.90;;
62925;SDS011;55732;52.248;-0.844;2023-06-24T06:52:10;9.20;;;4.10;;
62925;SDS011;55732;52.248;-0.844;2023-06-24T06:54:35;7.30;;;3.80;;
62925;SDS011;55732;52.248;-0.844;2023-06-24T06:57:01;8.60;;;4.30;;
62925;SDS011;55732;52.248;-0.844;2023-06-24T06:59:28;6.70;;;3.80;;
62925;SDS011;55732;52.248;-0.844;2023-06-24T07:01:54;7.20;;;3.50;;
62925;SDS011;55732;52.248;-0.844;2023-06-24T07:04:19;9.20;;;3.60;;
62925;SDS011;55732;52.248;-0.844;2023-06-24T07:06:45;6.40;;;3.60;;
62925;SDS011;55732;52.248;-0.844;2023-06-24T07:09:10;9.90;;;3.90;;
62925;SDS011;55732;52.248;-0.844;2023-06-24T07:11:35;7.10;;;4.10;;
62925;SDS011;55732;52.248;-0.844;2023-06-24T07:14:01;5.40;;;3.80;;
62925;SDS011;55732;52.248;-0.844;2023-06-24T07:16:26;6.00;;;3.70;;
62925;SDS011;55732;52.248;-0.844;2023-06-24T07:18:51;6.40;;;3.90;;
62925;SDS011;55732;52.248;-0.844;2023-06-24T07:21:17;7.70;;;4.10;;
62925;SDS011;55732;52.248;-0.844;2023-06-24T07:23:42;8.20;;;3.60;;
62925;SDS011;55732;52.248;-0.844;2023-06-24T07:26:07;5.20;;;3.60;;
62925;SDS011;55732;52.248;-0.844;2023-06-24T07:28:33;6.70;;;3.90;;
62925;SDS011;55732;52.248;-0.844;2023-06-24T07:30:58;5.90;;;3.80;;
62925;SDS011;55732;52.248;-0.844;2023-06-24T07:33:24;5.70;;;3.60;;
62925;SDS011;55732;52.248;-0.844;2023-06-24T07:35:49;7.00;;;4.20;;
62925;SDS011;55732;52.248;-0.844;2023-06-24T07:38:15;5.00;;;3.20;;
62925;SDS011;55732;52.248;-0.844;2023-06-24T07:40:40;9.00;;;3.70;;
62925;SDS011;55732;52.248;-0.844;2023-06-24T07:43:05;5.10;;;3.30;;
62925;SDS011;55732;52.248;-0.844;2023-06-24T07:45:31;4.30;;;3.30;;
62925;SDS011;55732;52.248;-0.844;2023-06-24T07:47:56;6.10;;;3.50;;
62925;SDS011;55732;52.248;-0.844;2023-06-24T07:50:21;5.10;;;3.70;;
62925;SDS011;55732;52.248;-0.844;2023-06-24T07:52:47;6.60;;;3.90;;
62925;SDS011;55732;52.248;-0.844;2023-06-24T07:55:12;5.70;;;3.70;;
62925;SDS011;55732;52.248;-0.844;2023-06-24T07:57:37;7.10;;;4.10;;
62925;SDS011;55732;52.248;-0.844;2023-06-24T08:00:03;5.30;;;3.60;;
62925;SDS011;55732;52.248;-0.844;2023-06-24T08:02:34;4.80;;;3.60;;
62925;SDS011;55732;52.248;-0.844;2023-06-24T08:04:59;4.50;;;3.60;;
62925;SDS011;55732;52.248;-0.844;2023-06-24T08:07:25;8.60;;;3.70;;
62925;SDS011;55732;52.248;-0.844;2023-06-24T08:09:50;6.60;;;3.60;;
62925;SDS011;55732;52.248;-0.844;2023-06-24T08:12:15;4.00;;;3.60;;
62925;SDS011;55732;52.248;-0.844;2023-06-24T08:14:41;7.90;;;4.00;;
62925;SDS011;55732;52.248;-0.844;2023-06-24T08:17:06;6.40;;;3.90;;
62925;SDS011;55732;52.248;-0.844;2023-06-24T08:19:31;6.30;;;3.50;;
62925;SDS011;55732;52.248;-0.844;2023-06-24T08:21:57;5.30;;;3.60;;
62925;SDS011;55732;52.248;-0.844;2023-06-24T08:24:22;7.30;;;3.50;;
62925;SDS011;55732;52.248;-0.844;2023-06-24T08:26:47;6.50;;;3.70;;
62925;SDS011;55732;52.248;-0.844;2023-06-24T08:29:13;6.90;;;3.70;;
62925;SDS011;55732;52.248;-0.844;2023-06-24T08:31:39;4.80;;;3.20;;
62925;SDS011;55732;52.248;-0.844;2023-06-24T08:34:04;4.90;;;3.50;;
62925;SDS011;55732;52.248;-0.844;2023-06-24T08:36:32;7.60;;;3.60;;
62925;SDS011;55732;52.248;-0.844;2023-06-24T08:38:57;8.70;;;3.40;;
62925;SDS011;55732;52.248;-0.844;2023-06-24T08:41:23;7.80;;;3.40;;
62925;SDS011;55732;52.248;-0.844;2023-06-24T08:43:52;7.70;;;3.10;;
62925;SDS011;55732;52.248;-0.844;2023-06-24T08:46:21;6.20;;;3.20;;
62925;SDS011;55732;52.248;-0.844;2023-06-24T08:48:49;4.00;;;3.10;;
62925;SDS011;55732;52.248;-0.844;2023-06-24T08:51:24;7.10;;;3.60;;
62925;SDS011;55732;52.248;-0.844;2023-06-24T08:53:54;6.60;;;3.30;;
62925;SDS011;55732;52.248;-0.844;2023-06-24T08:56:21;4.90;;;3.40;;
62925;SDS011;55732;52.248;-0.844;2023-06-24T08:58:47;6.70;;;3.70;;
62925;SDS011;55732;52.248;-0.844;2023-06-24T09:01:12;7.00;;;2.70;;
62925;SDS011;55732;52.248;-0.844;2023-06-24T09:03:37;4.30;;;2.70;;
62925;SDS011;55732;52.248;-0.844;2023-06-24T09:06:03;4.30;;;2.80;;
62925;SDS011;55732;52.248;-0.844;2023-06-24T09:08:29;5.90;;;2.70;;
62925;SDS011;55732;52.248;-0.844;2023-06-24T09:10:54;6.90;;;2.80;;
62925;SDS011;55732;52.248;-0.844;2023-06-24T09:13:35;6.20;;;2.40;;
62925;SDS011;55732;52.248;-0.844;2023-06-24T09:16:08;4.60;;;2.50;;
62925;SDS011;55732;52.248;-0.844;2023-06-24T09:18:37;2.50;;;2.30;;
62925;SDS011;55732;52.248;-0.844;2023-06-24T09:21:03;3.40;;;2.30;;
62925;SDS011;55732;52.248;-0.844;2023-06-24T09:23:28;4.70;;;2.40;;
62925;SDS011;55732;52.248;-0.844;2023-06-24T09:25:57;3.00;;;2.50;;
62925;SDS011;55732;52.248;-0.844;2023-06-24T09:28:27;5.00;;;2.70;;
62925;SDS011;55732;52.248;-0.844;2023-06-24T09:31:09;3.80;;;2.70;;
62925;SDS011;55732;52.248;-0.844;2023-06-24T09:33:34;5.30;;;2.80;;
62925;SDS011;55732;52.248;-0.844;2023-06-24T09:36:03;3.80;;;2.70;;
62925;SDS011;55732;52.248;-0.844;2023-06-24T09:38:34;3.80;;;2.50;;
62925;SDS011;55732;52.248;-0.844;2023-06-24T09:41:03;4.30;;;3.00;;
62925;SDS011;55732;52.248;-0.844;2023-06-24T09:43:33;3.50;;;2.60;;
62925;SDS011;55732;52.248;-0.844;2023-06-24T09:46:01;3.60;;;2.70;;
62925;SDS011;55732;52.248;-0.844;2023-06-24T09:48:27;4.20;;;2.60;;
62925;SDS011;55732;52.248;-0.844;2023-06-24T09:50:53;4.90;;;3.20;;
62925;SDS011;55732;52.248;-0.844;2023-06-24T09:53:23;4.10;;;2.60;;
62925;SDS011;55732;52.248;-0.844;2023-06-24T09:55:50;2.70;;;2.40;;
62925;SDS011;55732;52.248;-0.844;2023-06-24T09:58:17;4.20;;;2.80;;
62925;SDS011;55732;52.248;-0.844;2023-06-24T10:00:44;5.30;;;2.60;;
62925;SDS011;55732;52.248;-0.844;2023-06-24T10:03:09;2.80;;;2.50;;
62925;SDS011;55732;52.248;-0.844;2023-06-24T10:05:35;5.20;;;2.60;;
62925;SDS011;55732;52.248;-0.844;2023-06-24T10:08:02;3.10;;;2.50;;
62925;SDS011;55732;52.248;-0.844;2023-06-24T10:10:30;3.40;;;2.30;;
62925;SDS011;55732;52.248;-0.844;2023-06-24T10:12:56;3.40;;;2.30;;
62925;SDS011;55732;52.248;-0.844;2023-06-24T10:15:22;3.30;;;2.00;;
62925;SDS011;55732;52.248;-0.844;2023-06-24T10:17:50;3.40;;;2.40;;
62925;SDS011;55732;52.248;-0.844;2023-06-24T10:20:23;5.10;;;2.80;;
62925;SDS011;55732;52.248;-0.844;2023-06-24T10:22:50;3.40;;;2.40;;
62925;SDS011;55732;52.248;-0.844;2023-06-24T10:25:16;3.80;;;2.80;;
62925;SDS011;55732;52.248;-0.844;2023-06-24T10:27:43;4.90;;;2.50;;
62925;SDS011;55732;52.248;-0.844;2023-06-24T10:30:09;5.50;;;2.40;;
62925;SDS011;55732;52.248;-0.844;2023-06-24T10:32:43;3.40;;;2.40;;
62925;SDS011;55732;52.248;-0.844;2023-06-24T10:35:21;4.00;;;2.40;;
62925;SDS011;55732;52.248;-0.844;2023-06-24T10:37:53;4.40;;;2.50;;
62925;SDS011;55732;52.248;-0.844;2023-06-24T10:45:52;5.40;;;2.60;;
62925;SDS011;55732;52.248;-0.844;2023-06-24T10:48:18;4.30;;;2.40;;
62925;SDS011;55732;52.248;-0.844;2023-06-24T10:50:49;4.40;;;2.30;;
62925;SDS011;55732;52.248;-0.844;2023-06-24T10:53:15;3.40;;;2.60;;
62925;SDS011;55732;52.248;-0.844;2023-06-24T10:55:43;7.20;;;2.30;;
62925;SDS011;55732;52.248;-0.844;2023-06-24T10:58:10;4.20;;;2.20;;
62925;SDS011;55732;52.248;-0.844;2023-06-24T11:00:38;5.50;;;2.50;;
62925;SDS011;55732;52.248;-0.844;2023-06-24T11:03:14;3.30;;;2.40;;
62925;SDS011;55732;52.248;-0.844;2023-06-24T11:05:41;4.30;;;2.50;;
62925;SDS011;55732;52.248;-0.844;2023-06-24T11:10:33;4.40;;;2.80;;
62925;SDS011;55732;52.248;-0.844;2023-06-24T11:13:07;3.10;;;2.60;;
62925;SDS011;55732;52.248;-0.844;2023-06-24T11:15:33;3.50;;;2.70;;
62925;SDS011;55732;52.248;-0.844;2023-06-24T11:18:01;3.50;;;2.40;;
62925;SDS011;55732;52.248;-0.844;2023-06-24T11:20:28;5.60;;;2.90;;
62925;SDS011;55732;52.248;-0.844;2023-06-24T11:22:53;5.30;;;2.80;;
62925;SDS011;55732;52.248;-0.844;2023-06-24T11:25:20;3.60;;;2.60;;
62925;SDS011;55732;52.248;-0.844;2023-06-24T11:27:52;4.60;;;2.40;;
62925;SDS011;55732;52.248;-0.844;2023-06-24T11:30:20;4.30;;;3.10;;
62925;SDS011;55732;52.248;-0.844;2023-06-24T11:32:46;4.90;;;2.70;;
62925;SDS011;55732;52.248;-0.844;2023-06-24T11:35:13;3.90;;;2.50;;
62925;SDS011;55732;52.248;-0.844;2023-06-24T11:37:46;4.40;;;2.80;;
62925;SDS011;55732;52.248;-0.844;2023-06-24T11:40:13;5.50;;;3.00;;
62925;SDS011;55732;52.248;-0.844;2023-06-24T11:42:41;2.80;;;2.30;;
62925;SDS011;55732;52.248;-0.844;2023-06-24T11:45:10;6.00;;;2.30;;
62925;SDS011;55732;52.248;-0.844;2023-06-24T11:47:37;3.80;;;2.70;;
62925;SDS011;55732;52.248;-0.844;2023-06-24T11:50:04;5.80;;;2.50;;
62925;SDS011;55732;52.248;-0.844;2023-06-24T11:55:10;3.60;;;2.50;;
62925;SDS011;55732;52.248;-0.844;2023-06-24T12:00:28;5.60;;;2.50;;
62925;SDS011;55732;52.248;-0.844;2023-06-24T12:02:56;4.50;;;2.70;;
62925;SDS011;55732;52.248;-0.844;2023-06-24T12:05:27;3.50;;;2.40;;
62925;SDS011;55732;52.248;-0.844;2023-06-24T12:07:54;4.00;;;2.50;;
62925;SDS011;55732;52.248;-0.844;2023-06-24T12:10:22;6.20;;;2.80;;
62925;SDS011;55732;52.248;-0.844;2023-06-24T12:12:48;3.60;;;2.50;;
62925;SDS011;55732;52.248;-0.844;2023-06-24T12:15:13;3.20;;;2.30;;
62925;SDS011;55732;52.248;-0.844;2023-06-24T12:17:38;3.40;;;2.30;;
62925;SDS011;55732;52.248;-0.844;2023-06-24T12:20:04;3.00;;;2.60;;
62925;SDS011;55732;52.248;-0.844;2023-06-24T12:22:30;4.70;;;2.80;;
62925;SDS011;55732;52.248;-0.844;2023-06-24T12:24:55;4.00;;;2.60;;
62925;SDS011;55732;52.248;-0.844;2023-06-24T12:27:21;5.00;;;2.40;;
62925;SDS011;55732;52.248;-0.844;2023-06-24T12:29:46;4.30;;;2.50;;
62925;SDS011;55732;52.248;-0.844;2023-06-24T12:32:11;3.70;;;2.30;;
62925;SDS011;55732;52.248;-0.844;2023-06-24T12:34:37;5.60;;;2.40;;
62925;SDS011;55732;52.248;-0.844;2023-06-24T12:37:02;2.40;;;2.20;;
62925;SDS011;55732;52.248;-0.844;2023-06-24T12:39:27;3.00;;;2.10;;
62925;SDS011;55732;52.248;-0.844;2023-06-24T12:41:53;2.80;;;2.20;;
62925;SDS011;55732;52.248;-0.844;2023-06-24T12:44:18;4.00;;;2.30;;
62925;SDS011;55732;52.248;-0.844;2023-06-24T12:46:44;8.40;;;2.40;;
62925;SDS011;55732;52.248;-0.844;2023-06-24T12:49:09;6.30;;;2.10;;
62925;SDS011;55732;52.248;-0.844;2023-06-24T12:51:34;4.00;;;2.20;;
62925;SDS011;55732;52.248;-0.844;2023-06-24T12:53:59;5.50;;;2.70;;
62925;SDS011;55732;52.248;-0.844;2023-06-24T12:56:25;7.90;;;2.60;;
62925;SDS011;55732;52.248;-0.844;2023-06-24T12:58:50;3.80;;;2.20;;
62925;SDS011;55732;52.248;-0.844;2023-06-24T13:01:15;4.70;;;2.60;;
62925;SDS011;55732;52.248;-0.844;2023-06-24T13:03:41;6.40;;;2.40;;
62925;SDS011;55732;52.248;-0.844;2023-06-24T13:06:07;3.80;;;2.30;;
62925;SDS011;55732;52.248;-0.844;2023-06-24T13:08:32;3.80;;;2.40;;
62925;SDS011;55732;52.248;-0.844;2023-06-24T13:10:57;3.50;;;2.40;;
62925;SDS011;55732;52.248;-0.844;2023-06-24T13:13:23;4.60;;;2.30;;
62925;SDS011;55732;52.248;-0.844;2023-06-24T13:15:48;3.80;;;2.20;;
62925;SDS011;55732;52.248;-0.844;2023-06-24T13:18:13;3.70;;;2.50;;
62925;SDS011;55732;52.248;-0.844;2023-06-24T13:20:39;5.00;;;2.40;;
62925;SDS011;55732;52.248;-0.844;2023-06-24T13:23:04;3.30;;;2.40;;
62925;SDS011;55732;52.248;-0.844;2023-06-24T13:25:29;3.80;;;2.40;;
62925;SDS011;55732;52.248;-0.844;2023-06-24T13:27:55;3.50;;;2.30;;
62925;SDS011;55732;52.248;-0.844;2023-06-24T13:30:21;3.40;;;2.40;;
62925;SDS011;55732;52.248;-0.844;2023-06-24T13:32:46;3.00;;;2.30;;
62925;SDS011;55732;52.248;-0.844;2023-06-24T13:35:13;4.50;;;2.40;;
62925;SDS011;55732;52.248;-0.844;2023-06-24T13:37:38;3.80;;;2.20;;
62925;SDS011;55732;52.248;-0.844;2023-06-24T13:40:04;4.40;;;2.20;;
62925;SDS011;55732;52.248;-0.844;2023-06-24T13:42:30;3.50;;;2.30;;
62925;SDS011;55732;52.248;-0.844;2023-06-24T13:44:56;3.90;;;2.40;;
62925;SDS011;55732;52.248;-0.844;2023-06-24T13:47:21;3.00;;;2.00;;
62925;SDS011;55732;52.248;-0.844;2023-06-24T13:49:48;3.20;;;2.20;;
62925;SDS011;55732;52.248;-0.844;2023-06-24T13:52:13;3.00;;;2.20;;
62925;SDS011;55732;52.248;-0.844;2023-06-24T13:54:38;4.80;;;2.00;;
62925;SDS011;55732;52.248;-0.844;2023-06-24T13:57:04;2.30;;;2.00;;
62925;SDS011;55732;52.248;-0.844;2023-06-24T13:59:29;3.20;;;2.30;;
62925;SDS011;55732;52.248;-0.844;2023-06-24T14:01:54;3.80;;;2.40;;
62925;SDS011;55732;52.248;-0.844;2023-06-24T14:04:20;3.30;;;2.10;;
62925;SDS011;55732;52.248;-0.844;2023-06-24T14:06:45;4.50;;;2.20;;
62925;SDS011;55732;52.248;-0.844;2023-06-24T14:09:12;5.30;;;2.40;;
62925;SDS011;55732;52.248;-0.844;2023-06-24T14:11:37;2.70;;;2.00;;
62925;SDS011;55732;52.248;-0.844;2023-06-24T14:14:03;3.60;;;2.10;;
62925;SDS011;55732;52.248;-0.844;2023-06-24T14:16:28;3.00;;;1.90;;
62925;SDS011;55732;52.248;-0.844;2023-06-24T14:18:53;3.20;;;2.00;;
62925;SDS011;55732;52.248;-0.844;2023-06-24T14:21:19;2.30;;;1.80;;
62925;SDS011;55732;52.248;-0.844;2023-06-24T14:23:44;2.30;;;2.00;;
62925;SDS011;55732;52.248;-0.844;2023-06-24T14:26:10;3.70;;;2.30;;
62925;SDS011;55732;52.248;-0.844;2023-06-24T14:28:35;3.80;;;1.90;;
62925;SDS011;55732;52.248;-0.844;2023-06-24T14:31:01;2.80;;;2.00;;
62925;SDS011;55732;52.248;-0.844;2023-06-24T14:33:26;3.30;;;2.10;;
62925;SDS011;55732;52.248;-0.844;2023-06-24T14:35:51;5.20;;;2.10;;
62925;SDS011;55732;52.248;-0.844;2023-06-24T14:38:17;4.10;;;2.20;;
62925;SDS011;55732;52.248;-0.844;2023-06-24T14:40:43;2.10;;;1.90;;
62925;SDS011;55732;52.248;-0.844;2023-06-24T14:43:08;6.50;;;2.10;;
62925;SDS011;55732;52.248;-0.844;2023-06-24T14:45:33;5.90;;;2.10;;
62925;SDS011;55732;52.248;-0.844;2023-06-24T14:47:59;3.60;;;2.00;;
62925;SDS011;55732;52.248;-0.844;2023-06-24T14:50:24;4.80;;;2.30;;
62925;SDS011;55732;52.248;-0.844;2023-06-24T14:52:49;4.30;;;2.10;;
62925;SDS011;55732;52.248;-0.844;2023-06-24T14:55:15;2.70;;;2.20;;
62925;SDS011;55732;52.248;-0.844;2023-06-24T14:57:40;4.60;;;2.10;;
62925;SDS011;55732;52.248;-0.844;2023-06-24T15:00:06;4.80;;;1.90;;